sensor_id;sensor_type;location;lat;lon;timestamp;P1;durP1;ratioP1;P2;durP2;ratioP2
13481;SDS011;6813;60.352;15.746;2023-06-14T00:01:20;3.83;;;3.50;;
13481;SDS011;6813;60.352;15.746;2023-06-14T00:03:47;5.35;;;4.07;;
13481;SDS011;6813;60.352;15.746;2023-06-14T00:06:13;4.45;;;4.05;;
13481;SDS011;6813;60.352;15.746;2023-06-14T00:08:39;4.28;;;3.88;;
13481;SDS011;6813;60.352;15.746;2023-06-14T00:11:05;6.22;;;4.10;;
13481;SDS011;6813;60.352;15.746;2023-06-14T00:13:31;4.07;;;3.60;;
13481;SDS011;6813;60.352;15.746;2023-06-14T00:15:58;4.68;;;3.90;;
13481;SDS011;6813;60.352;15.746;2023-06-14T00:18:24;4.38;;;3.97;;
13481;SDS011;6813;60.352;15.746;2023-06-14T00:20:51;4.18;;;3.78;;
13481;SDS011;6813;60.352;15.746;2023-06-14T00:23:17;5.38;;;3.85;;
13481;SDS011;6813;60.352;15.746;2023-06-14T00:25:43;4.13;;;3.72;;
13481;SDS011;6813;60.352;15.746;2023-06-14T00:28:09;4.55;;;3.85;;
13481;SDS011;6813;60.352;15.746;2023-06-14T00:30:35;6.45;;;3.55;;
13481;SDS011;6813;60.352;15.746;2023-06-14T00:33:00;6.05;;;4.10;;
13481;SDS011;6813;60.352;15.746;2023-06-14T00:35:26;4.40;;;4.00;;
13481;SDS011;6813;60.352;15.746;2023-06-14T00:37:52;4.78;;;4.35;;
13481;SDS011;6813;60.352;15.746;2023-06-14T00:40:19;8.00;;;4.18;;
13481;SDS011;6813;60.352;15.746;2023-06-14T00:42:46;6.68;;;4.30;;
13481;SDS011;6813;60.352;15.746;2023-06-14T00:45:12;5.20;;;4.30;;
13481;SDS011;6813;60.352;15.746;2023-06-14T00:47:38;5.32;;;4.07;;
13481;SDS011;6813;60.352;15.746;2023-06-14T00:50:06;4.78;;;4.28;;
13481;SDS011;6813;60.352;15.746;2023-06-14T00:52:33;6.80;;;4.10;;
13481;SDS011;6813;60.352;15.746;2023-06-14T00:54:59;5.25;;;4.05;;
13481;SDS011;6813;60.352;15.746;2023-06-14T00:57:26;4.78;;;4.35;;
13481;SDS011;6813;60.352;15.746;2023-06-14T00:59:52;6.85;;;4.25;;
13481;SDS011;6813;60.352;15.746;2023-06-14T01:02:19;5.47;;;4.35;;
13481;SDS011;6813;60.352;15.746;2023-06-14T01:04:46;6.82;;;4.22;;
13481;SDS011;6813;60.352;15.746;2023-06-14T01:10:27;5.60;;;4.15;;
13481;SDS011;6813;60.352;15.746;2023-06-14T01:15:53;6.30;;;4.40;;
13481;SDS011;6813;60.352;15.746;2023-06-14T01:18:20;8.20;;;4.30;;
13481;SDS011;6813;60.352;15.746;2023-06-14T01:20:49;6.82;;;4.72;;
13481;SDS011;6813;60.352;15.746;2023-06-14T01:23:18;4.60;;;4.20;;
13481;SDS011;6813;60.352;15.746;2023-06-14T01:25:45;5.72;;;4.30;;
13481;SDS011;6813;60.352;15.746;2023-06-14T01:28:12;4.70;;;4.25;;
13481;SDS011;6813;60.352;15.746;2023-06-14T01:30:41;5.65;;;3.92;;
13481;SDS011;6813;60.352;15.746;2023-06-14T01:33:16;4.57;;;4.18;;
13481;SDS011;6813;60.352;15.746;2023-06-14T01:35:46;4.90;;;4.28;;
13481;SDS011;6813;60.352;15.746;2023-06-14T01:38:13;5.00;;;4.35;;
13481;SDS011;6813;60.352;15.746;2023-06-14T01:40:40;5.55;;;4.50;;
13481;SDS011;6813;60.352;15.746;2023-06-14T01:43:09;7.65;;;4.80;;
13481;SDS011;6813;60.352;15.746;2023-06-14T01:45:38;4.78;;;4.38;;
13481;SDS011;6813;60.352;15.746;2023-06-14T01:48:05;4.78;;;4.35;;
13481;SDS011;6813;60.352;15.746;2023-06-14T01:50:31;5.45;;;4.03;;
13481;SDS011;6813;60.352;15.746;2023-06-14T01:52:57;5.35;;;4.40;;
13481;SDS011;6813;60.352;15.746;2023-06-14T01:55:23;5.93;;;4.45;;
13481;SDS011;6813;60.352;15.746;2023-06-14T01:57:50;5.82;;;5.20;;
13481;SDS011;6813;60.352;15.746;2023-06-14T02:00:16;6.55;;;4.63;;
13481;SDS011;6813;60.352;15.746;2023-06-14T02:02:43;6.10;;;4.47;;
13481;SDS011;6813;60.352;15.746;2023-06-14T02:05:09;5.50;;;4.32;;
13481;SDS011;6813;60.352;15.746;2023-06-14T02:07:35;5.05;;;4.55;;
13481;SDS011;6813;60.352;15.746;2023-06-14T02:10:02;6.68;;;4.80;;
13481;SDS011;6813;60.352;15.746;2023-06-14T02:12:28;5.72;;;5.10;;
13481;SDS011;6813;60.352;15.746;2023-06-14T02:14:54;6.03;;;5.22;;
13481;SDS011;6813;60.352;15.746;2023-06-14T02:17:19;6.80;;;4.95;;
13481;SDS011;6813;60.352;15.746;2023-06-14T02:19:45;6.13;;;5.15;;
13481;SDS011;6813;60.352;15.746;2023-06-14T02:22:11;11.57;;;4.90;;
13481;SDS011;6813;60.352;15.746;2023-06-14T02:24:36;7.70;;;4.90;;
13481;SDS011;6813;60.352;15.746;2023-06-14T02:27:02;5.88;;;4.65;;
13481;SDS011;6813;60.352;15.746;2023-06-14T02:29:28;5.30;;;4.78;;
13481;SDS011;6813;60.352;15.746;2023-06-14T02:31:54;5.18;;;4.20;;
13481;SDS011;6813;60.352;15.746;2023-06-14T02:34:20;8.35;;;4.97;;
13481;SDS011;6813;60.352;15.746;2023-06-14T02:36:47;6.03;;;4.90;;
13481;SDS011;6813;60.352;15.746;2023-06-14T02:39:13;31.23;;;6.45;;
13481;SDS011;6813;60.352;15.746;2023-06-14T02:41:39;7.57;;;4.35;;
13481;SDS011;6813;60.352;15.746;2023-06-14T02:44:05;4.70;;;4.30;;
13481;SDS011;6813;60.352;15.746;2023-06-14T02:46:31;6.85;;;4.68;;
13481;SDS011;6813;60.352;15.746;2023-06-14T02:48:57;6.13;;;5.00;;
13481;SDS011;6813;60.352;15.746;2023-06-14T02:51:23;5.32;;;4.85;;
13481;SDS011;6813;60.352;15.746;2023-06-14T02:53:48;5.68;;;4.85;;
13481;SDS011;6813;60.352;15.746;2023-06-14T02:56:14;7.25;;;4.63;;
13481;SDS011;6813;60.352;15.746;2023-06-14T02:58:42;5.78;;;4.80;;
13481;SDS011;6813;60.352;15.746;2023-06-14T03:01:08;6.32;;;4.63;;
13481;SDS011;6813;60.352;15.746;2023-06-14T03:03:37;8.77;;;5.38;;
13481;SDS011;6813;60.352;15.746;2023-06-14T03:06:03;5.28;;;4.57;;
13481;SDS011;6813;60.352;15.746;2023-06-14T03:08:33;7.95;;;4.78;;
13481;SDS011;6813;60.352;15.746;2023-06-14T03:11:03;5.78;;;4.53;;
13481;SDS011;6813;60.352;15.746;2023-06-14T03:13:33;4.82;;;4.32;;
13481;SDS011;6813;60.352;15.746;2023-06-14T03:16:00;6.22;;;4.40;;
13481;SDS011;6813;60.352;15.746;2023-06-14T03:18:31;9.77;;;4.93;;
13481;SDS011;6813;60.352;15.746;2023-06-14T03:21:00;6.35;;;5.07;;
13481;SDS011;6813;60.352;15.746;2023-06-14T03:23:27;14.32;;;4.90;;
13481;SDS011;6813;60.352;15.746;2023-06-14T03:25:52;5.25;;;4.82;;
13481;SDS011;6813;60.352;15.746;2023-06-14T03:28:18;4.85;;;4.43;;
13481;SDS011;6813;60.352;15.746;2023-06-14T03:30:44;5.40;;;4.50;;
13481;SDS011;6813;60.352;15.746;2023-06-14T03:33:10;5.35;;;4.53;;
13481;SDS011;6813;60.352;15.746;2023-06-14T03:35:36;6.35;;;4.95;;
13481;SDS011;6813;60.352;15.746;2023-06-14T03:38:02;6.43;;;5.20;;
13481;SDS011;6813;60.352;15.746;2023-06-14T03:40:29;5.65;;;4.95;;
13481;SDS011;6813;60.352;15.746;2023-06-14T03:42:54;5.43;;;4.93;;
13481;SDS011;6813;60.352;15.746;2023-06-14T03:45:20;7.53;;;5.30;;
13481;SDS011;6813;60.352;15.746;2023-06-14T03:47:46;6.18;;;5.57;;
13481;SDS011;6813;60.352;15.746;2023-06-14T03:50:12;7.55;;;5.35;;
13481;SDS011;6813;60.352;15.746;2023-06-14T03:52:38;8.90;;;5.30;;
13481;SDS011;6813;60.352;15.746;2023-06-14T03:55:07;6.40;;;5.15;;
13481;SDS011;6813;60.352;15.746;2023-06-14T03:57:33;7.53;;;5.78;;
13481;SDS011;6813;60.352;15.746;2023-06-14T03:59:59;6.68;;;5.97;;
13481;SDS011;6813;60.352;15.746;2023-06-14T04:02:25;6.28;;;5.57;;
13481;SDS011;6813;60.352;15.746;2023-06-14T04:04:51;6.40;;;5.47;;
13481;SDS011;6813;60.352;15.746;2023-06-14T04:07:19;9.82;;;5.85;;
13481;SDS011;6813;60.352;15.746;2023-06-14T04:09:45;7.88;;;5.40;;
13481;SDS011;6813;60.352;15.746;2023-06-14T04:12:11;8.60;;;5.43;;
13481;SDS011;6813;60.352;15.746;2023-06-14T04:14:37;9.65;;;5.57;;
13481;SDS011;6813;60.352;15.746;2023-06-14T04:17:04;9.73;;;6.30;;
13481;SDS011;6813;60.352;15.746;2023-06-14T04:19:30;8.45;;;5.22;;
13481;SDS011;6813;60.352;15.746;2023-06-14T04:21:56;6.85;;;5.35;;
13481;SDS011;6813;60.352;15.746;2023-06-14T04:24:22;5.47;;;4.97;;
13481;SDS011;6813;60.352;15.746;2023-06-14T04:26:48;8.90;;;5.53;;
13481;SDS011;6813;60.352;15.746;2023-06-14T04:29:14;6.43;;;4.63;;
13481;SDS011;6813;60.352;15.746;2023-06-14T04:31:44;6.65;;;5.43;;
13481;SDS011;6813;60.352;15.746;2023-06-14T04:34:10;5.85;;;5.35;;
13481;SDS011;6813;60.352;15.746;2023-06-14T04:36:41;6.18;;;5.13;;
13481;SDS011;6813;60.352;15.746;2023-06-14T04:39:17;6.72;;;5.65;;
13481;SDS011;6813;60.352;15.746;2023-06-14T04:41:43;5.40;;;4.90;;
13481;SDS011;6813;60.352;15.746;2023-06-14T04:44:09;5.65;;;5.15;;
13481;SDS011;6813;60.352;15.746;2023-06-14T04:46:36;5.35;;;4.85;;
13481;SDS011;6813;60.352;15.746;2023-06-14T04:49:21;5.97;;;5.38;;
13481;SDS011;6813;60.352;15.746;2023-06-14T04:51:48;8.02;;;5.40;;
13481;SDS011;6813;60.352;15.746;2023-06-14T04:54:22;6.90;;;5.70;;
13481;SDS011;6813;60.352;15.746;2023-06-14T04:56:49;5.80;;;5.30;;
13481;SDS011;6813;60.352;15.746;2023-06-14T04:59:15;6.50;;;5.38;;
13481;SDS011;6813;60.352;15.746;2023-06-14T05:01:42;6.63;;;5.43;;
13481;SDS011;6813;60.352;15.746;2023-06-14T05:04:14;5.80;;;5.30;;
13481;SDS011;6813;60.352;15.746;2023-06-14T05:06:44;6.07;;;5.53;;
13481;SDS011;6813;60.352;15.746;2023-06-14T05:09:13;7.93;;;4.82;;
13481;SDS011;6813;60.352;15.746;2023-06-14T05:11:40;6.63;;;5.43;;
13481;SDS011;6813;60.352;15.746;2023-06-14T05:14:09;6.00;;;5.38;;
13481;SDS011;6813;60.352;15.746;2023-06-14T05:16:38;5.30;;;4.90;;
13481;SDS011;6813;60.352;15.746;2023-06-14T05:19:04;6.78;;;5.40;;
13481;SDS011;6813;60.352;15.746;2023-06-14T05:21:30;6.55;;;5.25;;
13481;SDS011;6813;60.352;15.746;2023-06-14T05:24:00;5.85;;;4.80;;
13481;SDS011;6813;60.352;15.746;2023-06-14T05:26:26;6.53;;;5.28;;
13481;SDS011;6813;60.352;15.746;2023-06-14T05:28:55;5.63;;;5.03;;
13481;SDS011;6813;60.352;15.746;2023-06-14T05:31:24;7.03;;;5.40;;
13481;SDS011;6813;60.352;15.746;2023-06-14T05:33:50;6.43;;;4.55;;
13481;SDS011;6813;60.352;15.746;2023-06-14T05:36:16;6.68;;;5.05;;
13481;SDS011;6813;60.352;15.746;2023-06-14T05:38:43;6.43;;;5.25;;
13481;SDS011;6813;60.352;15.746;2023-06-14T05:41:08;7.50;;;5.00;;
13481;SDS011;6813;60.352;15.746;2023-06-14T05:43:34;6.50;;;5.20;;
13481;SDS011;6813;60.352;15.746;2023-06-14T05:46:00;6.15;;;5.55;;
13481;SDS011;6813;60.352;15.746;2023-06-14T05:48:26;6.50;;;5.45;;
13481;SDS011;6813;60.352;15.746;2023-06-14T05:50:51;6.00;;;5.50;;
13481;SDS011;6813;60.352;15.746;2023-06-14T05:53:17;6.50;;;5.85;;
13481;SDS011;6813;60.352;15.746;2023-06-14T05:55:43;5.88;;;5.03;;
13481;SDS011;6813;60.352;15.746;2023-06-14T05:58:08;8.77;;;5.50;;
13481;SDS011;6813;60.352;15.746;2023-06-14T06:00:36;6.22;;;5.65;;
13481;SDS011;6813;60.352;15.746;2023-06-14T06:03:01;7.20;;;5.47;;
13481;SDS011;6813;60.352;15.746;2023-06-14T06:05:27;7.70;;;5.55;;
13481;SDS011;6813;60.352;15.746;2023-06-14T06:07:53;5.70;;;5.20;;
13481;SDS011;6813;60.352;15.746;2023-06-14T06:10:19;5.88;;;5.28;;
13481;SDS011;6813;60.352;15.746;2023-06-14T06:12:44;9.38;;;4.95;;
13481;SDS011;6813;60.352;15.746;2023-06-14T06:15:12;9.70;;;5.20;;
13481;SDS011;6813;60.352;15.746;2023-06-14T06:17:38;6.63;;;4.97;;
13481;SDS011;6813;60.352;15.746;2023-06-14T06:20:04;6.25;;;5.38;;
13481;SDS011;6813;60.352;15.746;2023-06-14T06:22:33;5.22;;;4.75;;
13481;SDS011;6813;60.352;15.746;2023-06-14T06:25:01;6.30;;;5.13;;
13481;SDS011;6813;60.352;15.746;2023-06-14T06:27:27;5.30;;;4.80;;
13481;SDS011;6813;60.352;15.746;2023-06-14T06:29:53;5.40;;;4.78;;
13481;SDS011;6813;60.352;15.746;2023-06-14T06:32:19;5.47;;;5.00;;
13481;SDS011;6813;60.352;15.746;2023-06-14T06:34:45;5.50;;;5.00;;
13481;SDS011;6813;60.352;15.746;2023-06-14T06:37:11;5.72;;;5.15;;
13481;SDS011;6813;60.352;15.746;2023-06-14T06:39:37;5.57;;;4.65;;
13481;SDS011;6813;60.352;15.746;2023-06-14T06:42:02;7.57;;;4.82;;
13481;SDS011;6813;60.352;15.746;2023-06-14T06:44:28;5.10;;;4.20;;
13481;SDS011;6813;60.352;15.746;2023-06-14T06:46:54;5.13;;;4.55;;
13481;SDS011;6813;60.352;15.746;2023-06-14T06:49:20;4.20;;;3.80;;
13481;SDS011;6813;60.352;15.746;2023-06-14T06:51:58;6.57;;;4.55;;
13481;SDS011;6813;60.352;15.746;2023-06-14T06:54:29;5.10;;;4.57;;
13481;SDS011;6813;60.352;15.746;2023-06-14T06:56:54;7.15;;;4.78;;
13481;SDS011;6813;60.352;15.746;2023-06-14T06:59:20;5.05;;;4.25;;
13481;SDS011;6813;60.352;15.746;2023-06-14T07:01:46;10.55;;;4.20;;
13481;SDS011;6813;60.352;15.746;2023-06-14T07:04:12;8.63;;;4.50;;
13481;SDS011;6813;60.352;15.746;2023-06-14T07:06:38;5.13;;;3.80;;
13481;SDS011;6813;60.352;15.746;2023-06-14T07:09:04;4.65;;;4.30;;
13481;SDS011;6813;60.352;15.746;2023-06-14T07:11:33;5.55;;;4.68;;
13481;SDS011;6813;60.352;15.746;2023-06-14T07:13:59;8.65;;;4.53;;
13481;SDS011;6813;60.352;15.746;2023-06-14T07:16:25;6.28;;;4.47;;
13481;SDS011;6813;60.352;15.746;2023-06-14T07:18:51;5.85;;;4.63;;
13481;SDS011;6813;60.352;15.746;2023-06-14T07:21:17;6.80;;;4.28;;
13481;SDS011;6813;60.352;15.746;2023-06-14T07:23:43;4.72;;;4.30;;
13481;SDS011;6813;60.352;15.746;2023-06-14T07:26:08;4.68;;;3.80;;
13481;SDS011;6813;60.352;15.746;2023-06-14T07:28:34;5.13;;;4.60;;
13481;SDS011;6813;60.352;15.746;2023-06-14T07:31:00;5.65;;;4.63;;
13481;SDS011;6813;60.352;15.746;2023-06-14T07:33:26;5.15;;;4.00;;
13481;SDS011;6813;60.352;15.746;2023-06-14T07:35:52;4.15;;;3.75;;
13481;SDS011;6813;60.352;15.746;2023-06-14T07:38:18;4.70;;;4.30;;
13481;SDS011;6813;60.352;15.746;2023-06-14T07:40:43;5.03;;;3.90;;
13481;SDS011;6813;60.352;15.746;2023-06-14T07:43:09;4.40;;;3.92;;
13481;SDS011;6813;60.352;15.746;2023-06-14T07:45:35;4.88;;;4.22;;
13481;SDS011;6813;60.352;15.746;2023-06-14T07:48:02;9.20;;;4.40;;
13481;SDS011;6813;60.352;15.746;2023-06-14T07:50:27;4.43;;;3.92;;
13481;SDS011;6813;60.352;15.746;2023-06-14T07:52:54;7.10;;;4.38;;
13481;SDS011;6813;60.352;15.746;2023-06-14T07:55:20;4.82;;;3.88;;
13481;SDS011;6813;60.352;15.746;2023-06-14T07:57:45;5.65;;;3.83;;
13481;SDS011;6813;60.352;15.746;2023-06-14T08:00:11;5.32;;;4.22;;
13481;SDS011;6813;60.352;15.746;2023-06-14T08:02:40;5.28;;;3.90;;
13481;SDS011;6813;60.352;15.746;2023-06-14T08:05:08;4.07;;;3.65;;
13481;SDS011;6813;60.352;15.746;2023-06-14T08:07:35;5.72;;;4.00;;
13481;SDS011;6813;60.352;15.746;2023-06-14T08:10:01;4.10;;;3.53;;
13481;SDS011;6813;60.352;15.746;2023-06-14T08:12:26;4.18;;;3.75;;
13481;SDS011;6813;60.352;15.746;2023-06-14T08:14:52;4.70;;;3.83;;
13481;SDS011;6813;60.352;15.746;2023-06-14T08:17:18;4.28;;;3.40;;
13481;SDS011;6813;60.352;15.746;2023-06-14T08:19:43;6.55;;;3.70;;
13481;SDS011;6813;60.352;15.746;2023-06-14T08:22:09;5.75;;;4.05;;
13481;SDS011;6813;60.352;15.746;2023-06-14T08:24:37;10.77;;;3.90;;
13481;SDS011;6813;60.352;15.746;2023-06-14T08:27:02;4.18;;;3.70;;
13481;SDS011;6813;60.352;15.746;2023-06-14T08:29:28;4.65;;;4.13;;
13481;SDS011;6813;60.352;15.746;2023-06-14T08:31:55;6.28;;;4.05;;
13481;SDS011;6813;60.352;15.746;2023-06-14T08:34:21;4.55;;;3.90;;
13481;SDS011;6813;60.352;15.746;2023-06-14T08:36:49;4.80;;;3.97;;
13481;SDS011;6813;60.352;15.746;2023-06-14T08:39:15;5.22;;;3.90;;
13481;SDS011;6813;60.352;15.746;2023-06-14T08:41:41;4.93;;;4.13;;
13481;SDS011;6813;60.352;15.746;2023-06-14T08:44:10;4.45;;;4.05;;
13481;SDS011;6813;60.352;15.746;2023-06-14T08:46:36;5.28;;;3.53;;
13481;SDS011;6813;60.352;15.746;2023-06-14T08:49:02;9.15;;;4.30;;
13481;SDS011;6813;60.352;15.746;2023-06-14T08:51:31;4.40;;;3.90;;
13481;SDS011;6813;60.352;15.746;2023-06-14T08:54:02;4.32;;;3.90;;
13481;SDS011;6813;60.352;15.746;2023-06-14T08:56:29;7.15;;;3.95;;
13481;SDS011;6813;60.352;15.746;2023-06-14T08:58:56;4.47;;;3.85;;
13481;SDS011;6813;60.352;15.746;2023-06-14T09:01:23;4.82;;;3.97;;
13481;SDS011;6813;60.352;15.746;2023-06-14T09:03:49;4.32;;;3.95;;
13481;SDS011;6813;60.352;15.746;2023-06-14T09:06:16;5.28;;;4.20;;
13481;SDS011;6813;60.352;15.746;2023-06-14T09:08:44;4.68;;;4.20;;
13481;SDS011;6813;60.352;15.746;2023-06-14T09:11:11;4.53;;;4.13;;
13481;SDS011;6813;60.352;15.746;2023-06-14T09:13:38;4.50;;;3.85;;
13481;SDS011;6813;60.352;15.746;2023-06-14T09:16:04;4.25;;;3.92;;
13481;SDS011;6813;60.352;15.746;2023-06-14T09:18:34;4.68;;;4.22;;
13481;SDS011;6813;60.352;15.746;2023-06-14T09:21:13;4.63;;;4.10;;
13481;SDS011;6813;60.352;15.746;2023-06-14T09:23:41;4.28;;;3.95;;
13481;SDS011;6813;60.352;15.746;2023-06-14T09:26:08;5.57;;;4.05;;
13481;SDS011;6813;60.352;15.746;2023-06-14T09:28:44;6.40;;;4.05;;
13481;SDS011;6813;60.352;15.746;2023-06-14T09:31:15;4.18;;;3.80;;
13481;SDS011;6813;60.352;15.746;2023-06-14T09:33:43;5.35;;;4.20;;
13481;SDS011;6813;60.352;15.746;2023-06-14T09:36:25;4.28;;;3.88;;
13481;SDS011;6813;60.352;15.746;2023-06-14T09:38:55;4.45;;;3.55;;
13481;SDS011;6813;60.352;15.746;2023-06-14T09:41:34;4.00;;;3.40;;
13481;SDS011;6813;60.352;15.746;2023-06-14T09:44:02;4.50;;;3.90;;
13481;SDS011;6813;60.352;15.746;2023-06-14T09:46:30;3.85;;;3.55;;
13481;SDS011;6813;60.352;15.746;2023-06-14T09:48:56;4.18;;;3.80;;
13481;SDS011;6813;60.352;15.746;2023-06-14T09:51:23;5.55;;;4.13;;
13481;SDS011;6813;60.352;15.746;2023-06-14T09:53:49;5.90;;;3.88;;
13481;SDS011;6813;60.352;15.746;2023-06-14T09:56:20;6.32;;;4.18;;
13481;SDS011;6813;60.352;15.746;2023-06-14T09:58:52;3.83;;;3.53;;
13481;SDS011;6813;60.352;15.746;2023-06-14T10:01:20;3.75;;;3.35;;
13481;SDS011;6813;60.352;15.746;2023-06-14T10:03:49;3.80;;;3.50;;
13481;SDS011;6813;60.352;15.746;2023-06-14T10:06:20;4.85;;;3.65;;
13481;SDS011;6813;60.352;15.746;2023-06-14T10:08:49;4.55;;;4.15;;
13481;SDS011;6813;60.352;15.746;2023-06-14T10:11:17;3.95;;;3.50;;
13481;SDS011;6813;60.352;15.746;2023-06-14T10:13:43;4.53;;;3.65;;
13481;SDS011;6813;60.352;15.746;2023-06-14T10:16:10;3.60;;;3.30;;
13481;SDS011;6813;60.352;15.746;2023-06-14T10:18:47;5.63;;;3.53;;
13481;SDS011;6813;60.352;15.746;2023-06-14T10:21:25;5.40;;;3.70;;
13481;SDS011;6813;60.352;15.746;2023-06-14T10:24:10;4.25;;;3.90;;
13481;SDS011;6813;60.352;15.746;2023-06-14T10:26:50;5.38;;;3.55;;
13481;SDS011;6813;60.352;15.746;2023-06-14T10:29:17;5.30;;;3.80;;
13481;SDS011;6813;60.352;15.746;2023-06-14T10:31:49;3.80;;;3.50;;
13481;SDS011;6813;60.352;15.746;2023-06-14T10:34:24;4.47;;;3.83;;
13481;SDS011;6813;60.352;15.746;2023-06-14T10:37:04;3.50;;;3.20;;
13481;SDS011;6813;60.352;15.746;2023-06-14T10:39:31;3.75;;;3.42;;
13481;SDS011;6813;60.352;15.746;2023-06-14T10:42:01;4.20;;;3.90;;
13481;SDS011;6813;60.352;15.746;2023-06-14T10:46:55;4.05;;;3.47;;
13481;SDS011;6813;60.352;15.746;2023-06-14T10:49:44;4.40;;;3.83;;
13481;SDS011;6813;60.352;15.746;2023-06-14T10:52:11;5.00;;;3.70;;
13481;SDS011;6813;60.352;15.746;2023-06-14T10:57:28;4.20;;;3.80;;
13481;SDS011;6813;60.352;15.746;2023-06-14T10:59:57;4.60;;;3.60;;
13481;SDS011;6813;60.352;15.746;2023-06-14T11:05:27;4.72;;;4.03;;
13481;SDS011;6813;60.352;15.746;2023-06-14T11:10:41;4.85;;;3.60;;
13481;SDS011;6813;60.352;15.746;2023-06-14T11:13:08;4.20;;;3.55;;
13481;SDS011;6813;60.352;15.746;2023-06-14T11:15:36;7.22;;;4.05;;
13481;SDS011;6813;60.352;15.746;2023-06-14T11:18:04;3.47;;;3.17;;
13481;SDS011;6813;60.352;15.746;2023-06-14T11:20:33;4.35;;;3.95;;
13481;SDS011;6813;60.352;15.746;2023-06-14T11:23:00;4.63;;;4.22;;
13481;SDS011;6813;60.352;15.746;2023-06-14T11:25:27;5.18;;;4.10;;
13481;SDS011;6813;60.352;15.746;2023-06-14T11:27:56;4.13;;;3.78;;
13481;SDS011;6813;60.352;15.746;2023-06-14T11:30:23;6.45;;;3.95;;
13481;SDS011;6813;60.352;15.746;2023-06-14T11:32:53;4.30;;;3.90;;
13481;SDS011;6813;60.352;15.746;2023-06-14T11:35:22;4.57;;;4.15;;
13481;SDS011;6813;60.352;15.746;2023-06-14T11:37:49;4.13;;;3.58;;
13481;SDS011;6813;60.352;15.746;2023-06-14T11:40:18;4.45;;;3.70;;
13481;SDS011;6813;60.352;15.746;2023-06-14T11:42:43;4.15;;;3.75;;
13481;SDS011;6813;60.352;15.746;2023-06-14T11:45:10;4.55;;;4.18;;
13481;SDS011;6813;60.352;15.746;2023-06-14T11:47:37;4.70;;;3.88;;
13481;SDS011;6813;60.352;15.746;2023-06-14T11:50:04;4.65;;;3.83;;
13481;SDS011;6813;60.352;15.746;2023-06-14T11:52:31;4.00;;;3.70;;
13481;SDS011;6813;60.352;15.746;2023-06-14T11:54:57;4.20;;;3.80;;
13481;SDS011;6813;60.352;15.746;2023-06-14T11:57:24;4.18;;;3.47;;
13481;SDS011;6813;60.352;15.746;2023-06-14T11:59:50;4.90;;;4.50;;
13481;SDS011;6813;60.352;15.746;2023-06-14T12:02:17;5.93;;;3.92;;
13481;SDS011;6813;60.352;15.746;2023-06-14T12:04:46;5.22;;;4.32;;
13481;SDS011;6813;60.352;15.746;2023-06-14T12:07:16;4.03;;;3.72;;
13481;SDS011;6813;60.352;15.746;2023-06-14T12:12:22;3.95;;;3.65;;
13481;SDS011;6813;60.352;15.746;2023-06-14T12:14:52;4.47;;;4.07;;
13481;SDS011;6813;60.352;15.746;2023-06-14T12:17:21;3.85;;;3.55;;
13481;SDS011;6813;60.352;15.746;2023-06-14T12:19:48;4.28;;;3.88;;
13481;SDS011;6813;60.352;15.746;2023-06-14T12:22:15;4.20;;;3.80;;
13481;SDS011;6813;60.352;15.746;2023-06-14T12:24:45;5.05;;;3.70;;
13481;SDS011;6813;60.352;15.746;2023-06-14T12:27:11;5.22;;;3.90;;
13481;SDS011;6813;60.352;15.746;2023-06-14T12:29:40;4.40;;;4.00;;
13481;SDS011;6813;60.352;15.746;2023-06-14T12:32:08;6.25;;;3.90;;
13481;SDS011;6813;60.352;15.746;2023-06-14T12:34:35;4.40;;;4.07;;
13481;SDS011;6813;60.352;15.746;2023-06-14T12:37:00;6.22;;;4.22;;
13481;SDS011;6813;60.352;15.746;2023-06-14T12:39:29;4.72;;;4.32;;
13481;SDS011;6813;60.352;15.746;2023-06-14T12:41:56;4.68;;;3.90;;
13481;SDS011;6813;60.352;15.746;2023-06-14T12:44:22;4.35;;;3.72;;
13481;SDS011;6813;60.352;15.746;2023-06-14T12:46:48;4.35;;;3.90;;
13481;SDS011;6813;60.352;15.746;2023-06-14T12:49:16;4.65;;;3.80;;
13481;SDS011;6813;60.352;15.746;2023-06-14T12:51:42;4.18;;;3.88;;
13481;SDS011;6813;60.352;15.746;2023-06-14T12:54:08;6.75;;;4.45;;
13481;SDS011;6813;60.352;15.746;2023-06-14T12:56:34;5.05;;;4.13;;
13481;SDS011;6813;60.352;15.746;2023-06-14T12:59:00;4.50;;;4.10;;
13481;SDS011;6813;60.352;15.746;2023-06-14T13:01:26;4.55;;;4.10;;
13481;SDS011;6813;60.352;15.746;2023-06-14T13:03:51;5.35;;;4.18;;
13481;SDS011;6813;60.352;15.746;2023-06-14T13:06:22;4.63;;;3.90;;
13481;SDS011;6813;60.352;15.746;2023-06-14T13:08:47;4.78;;;4.05;;
13481;SDS011;6813;60.352;15.746;2023-06-14T13:11:14;5.80;;;4.47;;
13481;SDS011;6813;60.352;15.746;2023-06-14T13:13:40;4.78;;;4.38;;
13481;SDS011;6813;60.352;15.746;2023-06-14T13:16:05;4.38;;;3.97;;
13481;SDS011;6813;60.352;15.746;2023-06-14T13:18:31;6.45;;;4.20;;
13481;SDS011;6813;60.352;15.746;2023-06-14T13:20:57;4.97;;;4.50;;
13481;SDS011;6813;60.352;15.746;2023-06-14T13:23:22;4.30;;;4.00;;
13481;SDS011;6813;60.352;15.746;2023-06-14T13:25:48;5.05;;;4.30;;
13481;SDS011;6813;60.352;15.746;2023-06-14T13:28:17;6.13;;;4.25;;
13481;SDS011;6813;60.352;15.746;2023-06-14T13:30:42;5.82;;;4.15;;
13481;SDS011;6813;60.352;15.746;2023-06-14T13:33:08;4.90;;;4.50;;
13481;SDS011;6813;60.352;15.746;2023-06-14T13:35:34;6.93;;;4.85;;
13481;SDS011;6813;60.352;15.746;2023-06-14T13:38:00;10.68;;;7.40;;
13481;SDS011;6813;60.352;15.746;2023-06-14T13:40:26;4.88;;;4.40;;
13481;SDS011;6813;60.352;15.746;2023-06-14T13:42:52;6.13;;;4.55;;
13481;SDS011;6813;60.352;15.746;2023-06-14T13:45:17;4.70;;;4.15;;
13481;SDS011;6813;60.352;15.746;2023-06-14T13:47:43;4.68;;;4.28;;
13481;SDS011;6813;60.352;15.746;2023-06-14T13:50:09;4.88;;;3.75;;
13481;SDS011;6813;60.352;15.746;2023-06-14T13:52:35;4.47;;;4.18;;
13481;SDS011;6813;60.352;15.746;2023-06-14T13:55:01;4.63;;;4.20;;
13481;SDS011;6813;60.352;15.746;2023-06-14T13:57:27;4.63;;;4.20;;
13481;SDS011;6813;60.352;15.746;2023-06-14T13:59:53;4.57;;;4.18;;
13481;SDS011;6813;60.352;15.746;2023-06-14T14:02:20;4.45;;;4.00;;
13481;SDS011;6813;60.352;15.746;2023-06-14T14:04:46;5.60;;;4.63;;
13481;SDS011;6813;60.352;15.746;2023-06-14T14:07:17;5.30;;;4.40;;
13481;SDS011;6813;60.352;15.746;2023-06-14T14:09:44;4.78;;;4.22;;
13481;SDS011;6813;60.352;15.746;2023-06-14T14:12:10;5.35;;;4.43;;
13481;SDS011;6813;60.352;15.746;2023-06-14T14:14:36;4.43;;;4.03;;
13481;SDS011;6813;60.352;15.746;2023-06-14T14:17:02;6.38;;;4.03;;
13481;SDS011;6813;60.352;15.746;2023-06-14T14:19:28;4.22;;;3.85;;
13481;SDS011;6813;60.352;15.746;2023-06-14T14:21:54;5.00;;;4.50;;
13481;SDS011;6813;60.352;15.746;2023-06-14T14:24:20;6.40;;;4.60;;
13481;SDS011;6813;60.352;15.746;2023-06-14T14:26:46;7.93;;;4.40;;
13481;SDS011;6813;60.352;15.746;2023-06-14T14:29:15;4.38;;;3.95;;
13481;SDS011;6813;60.352;15.746;2023-06-14T14:31:41;5.00;;;4.43;;
13481;SDS011;6813;60.352;15.746;2023-06-14T14:34:07;5.20;;;4.20;;
13481;SDS011;6813;60.352;15.746;2023-06-14T14:36:33;5.47;;;4.30;;
13481;SDS011;6813;60.352;15.746;2023-06-14T14:39:02;6.10;;;5.40;;
13481;SDS011;6813;60.352;15.746;2023-06-14T14:41:32;9.02;;;5.57;;
13481;SDS011;6813;60.352;15.746;2023-06-14T14:43:57;4.65;;;4.25;;
13481;SDS011;6813;60.352;15.746;2023-06-14T14:46:25;6.43;;;4.30;;
13481;SDS011;6813;60.352;15.746;2023-06-14T14:48:52;7.28;;;4.07;;
13481;SDS011;6813;60.352;15.746;2023-06-14T14:51:18;5.00;;;4.57;;
13481;SDS011;6813;60.352;15.746;2023-06-14T14:53:43;6.30;;;4.32;;
13481;SDS011;6813;60.352;15.746;2023-06-14T14:56:09;5.68;;;4.40;;
13481;SDS011;6813;60.352;15.746;2023-06-14T14:58:36;4.95;;;4.47;;
13481;SDS011;6813;60.352;15.746;2023-06-14T15:01:02;4.22;;;3.92;;
13481;SDS011;6813;60.352;15.746;2023-06-14T15:03:30;5.55;;;4.50;;
13481;SDS011;6813;60.352;15.746;2023-06-14T15:05:56;5.63;;;4.93;;
13481;SDS011;6813;60.352;15.746;2023-06-14T15:08:22;5.25;;;4.07;;